Time;durP1;ratioP1;P1;durP2;ratioP2;P2;SDS_P1;SDS_P2;PMS_P1;PMS_P2;Temp;Humidity;BMP_temperature;BMP_pressure;BME280_temperature;BME280_humidity;BME280_pressure;Samples;Min_cycle;Max_cycle;Signal;HPM_P1;HPM_P2
2023/08/04 00:02:14;;;;;;;5.43;2.63;;;;;;;18.32;69.98;98523.22;5127428;28;20044;-69
2023/08/04 00:04:42;;;;;;;4.03;2.60;;;;;;;18.34;69.31;98509.66;5128247;28;20049;-69
2023/08/04 00:07:09;;;;;;;5.32;2.80;;;;;;;18.48;70.40;98522.50;5128214;28;20051;-68
2023/08/04 00:09:36;;;;;;;7.65;2.97;;;;;;;18.57;70.10;98535.88;5128473;28;20194;-68
2023/08/04 00:12:03;;;;;;;4.43;2.75;;;;;;;18.59;70.06;98533.03;5128124;28;20055;-69
2023/08/04 00:14:29;;;;;;;4.13;2.65;;;;;;;18.60;70.70;98537.41;5128628;28;20043;-68
2023/08/04 00:16:56;;;;;;;3.25;2.22;;;;;;;18.53;71.52;98550.59;5128620;28;20051;-68
2023/08/04 00:19:23;;;;;;;6.47;2.30;;;;;;;18.56;70.98;98550.28;5128260;28;20203;-68
2023/08/04 00:21:51;;;;;;;5.13;3.03;;;;;;;18.40;71.89;98531.34;5127896;28;20047;-68
2023/08/04 00:24:18;;;;;;;4.47;2.58;;;;;;;18.54;72.18;98552.28;5127650;28;20368;-68
2023/08/04 00:26:44;;;;;;;4.63;2.42;;;;;;;18.52;71.05;98561.50;5128015;28;20047;-72
2023/08/04 00:29:11;;;;;;;5.35;2.35;;;;;;;18.61;70.61;98568.63;5127309;28;20326;-72
2023/08/04 00:31:38;;;;;;;3.47;1.95;;;;;;;18.55;72.01;98570.06;5127171;28;20040;-71
2023/08/04 00:34:05;;;;;;;2.67;1.90;;;;;;;18.48;72.60;98582.38;5127551;28;20043;-71
2023/08/04 00:36:32;;;;;;;4.70;2.67;;;;;;;18.53;70.78;98595.38;5127125;28;20303;-71
2023/08/04 00:39:00;;;;;;;3.47;2.03;;;;;;;18.51;71.78;98591.97;5127860;28;20295;-70
2023/08/04 00:41:27;;;;;;;3.35;2.28;;;;;;;18.48;72.17;98594.97;5127588;28;20050;-70
2023/08/04 00:43:54;;;;;;;4.93;2.60;;;;;;;18.48;71.96;98590.44;5127252;28;20051;-71
2023/08/04 00:46:22;;;;;;;4.15;2.15;;;;;;;18.48;71.84;98601.16;5127417;28;20050;-70
2023/08/04 00:48:49;;;;;;;4.88;2.33;;;;;;;18.38;71.04;98584.31;5127925;28;20066;-70
2023/08/04 00:51:16;;;;;;;4.07;2.10;;;;;;;18.58;69.76;98607.34;5127628;28;20042;-70
2023/08/04 00:53:44;;;;;;;3.90;2.05;;;;;;;18.47;71.50;98604.00;5127262;28;20043;-70
2023/08/04 00:56:13;;;;;;;5.60;2.47;;;;;;;18.51;70.34;98611.59;5126195;28;20116;-70
2023/08/04 00:58:39;;;;;;;3.40;1.92;;;;;;;18.48;69.86;98605.69;5127331;28;20063;-71
2023/08/04 01:01:06;;;;;;;4.03;1.83;;;;;;;18.56;69.13;98612.00;5127363;28;20039;-71
2023/08/04 01:03:34;;;;;;;3.00;1.90;;;;;;;18.49;68.75;98608.22;5127343;28;20043;-70
2023/08/04 01:06:11;;;;;;;3.83;2.30;;;;;;;18.48;68.25;98611.91;5126894;28;20045;-72
2023/08/04 01:08:43;;;;;;;4.10;1.98;;;;;;;18.46;68.23;98616.56;5127005;28;20239;-71
2023/08/04 01:11:19;;;;;;;2.50;1.50;;;;;;;17.91;68.03;98543.41;5127015;28;20252;-71
2023/08/04 01:13:48;;;;;;;3.40;1.63;;;;;;;18.40;67.48;98614.50;5126833;28;20097;-70
2023/08/04 01:16:14;;;;;;;3.28;1.92;;;;;;;18.44;67.22;98604.31;5127098;28;20058;-71
2023/08/04 01:18:41;;;;;;;3.03;1.55;;;;;;;18.40;67.35;98603.78;5127062;28;20043;-70
2023/08/04 01:21:09;;;;;;;5.15;2.25;;;;;;;18.41;66.76;98602.78;5126994;28;20157;-71
2023/08/04 01:23:36;;;;;;;4.57;1.98;;;;;;;18.40;66.63;98590.34;5126707;28;20262;-70
2023/08/04 01:26:06;;;;;;;3.67;2.10;;;;;;;18.47;66.51;98594.13;5126876;28;20081;-70
2023/08/04 01:28:34;;;;;;;3.65;1.95;;;;;;;18.22;66.84;98560.84;5126747;28;20043;-70
2023/08/04 01:31:03;;;;;;;3.95;1.70;;;;;;;18.37;66.59;98597.88;5127194;28;20242;-70
2023/08/04 01:33:30;;;;;;;4.18;1.88;;;;;;;18.04;66.62;98556.44;5125451;28;20039;-71
2023/08/04 01:35:57;;;;;;;3.08;1.80;;;;;;;18.33;66.81;98609.88;5126846;28;20088;-71
2023/08/04 01:38:25;;;;;;;4.55;1.63;;;;;;;18.32;67.02;98592.13;5126326;28;20211;-71
2023/08/04 01:40:52;;;;;;;4.10;1.85;;;;;;;18.30;67.88;98594.09;5126724;28;20043;-71
2023/08/04 01:43:21;;;;;;;2.63;1.60;;;;;;;17.77;68.80;98511.75;5125953;28;20047;-70
2023/08/04 01:45:47;;;;;;;3.90;1.73;;;;;;;18.26;69.16;98610.50;5126303;28;20066;-70
2023/08/04 01:48:14;;;;;;;3.55;2.17;;;;;;;18.24;69.79;98604.44;5126920;28;20035;-70
2023/08/04 01:50:41;;;;;;;5.70;1.92;;;;;;;18.14;71.30;98603.66;5126566;28;20066;-71
2023/08/04 01:53:08;;;;;;;3.55;1.80;;;;;;;18.10;70.99;98599.59;5125681;28;20303;-71
2023/08/04 01:55:36;;;;;;;3.10;1.70;;;;;;;18.15;70.56;98609.88;5126233;28;20051;-72
2023/08/04 01:58:03;;;;;;;3.33;1.80;;;;;;;18.18;70.15;98615.78;5126722;28;20078;-71
2023/08/04 02:00:30;;;;;;;3.33;2.00;;;;;;;18.17;69.72;98624.81;5126225;28;20078;-71
2023/08/04 02:02:57;;;;;;;4.82;2.10;;;;;;;18.19;69.24;98630.03;5126415;28;20261;-71
2023/08/04 02:05:24;;;;;;;3.17;2.08;;;;;;;18.14;69.82;98630.47;5125781;28;20039;-71
2023/08/04 02:07:50;;;;;;;4.80;2.03;;;;;;;18.14;68.99;98613.53;5126386;28;20063;-72
2023/08/04 02:10:18;;;;;;;3.67;1.85;;;;;;;18.18;68.40;98618.44;5126663;28;20040;-71
2023/08/04 02:12:48;;;;;;;3.88;2.00;;;;;;;18.12;69.18;98620.88;5125746;28;20039;-72
2023/08/04 02:15:16;;;;;;;5.05;2.03;;;;;;;18.14;69.65;98621.59;5126016;28;20058;-71
2023/08/04 02:17:43;;;;;;;3.40;1.73;;;;;;;18.05;69.70;98628.69;5126291;28;20043;-71
2023/08/04 02:20:10;;;;;;;5.63;2.40;;;;;;;18.07;70.31;98620.50;5125793;28;20089;-72
2023/08/04 02:22:37;;;;;;;3.28;1.60;;;;;;;17.87;70.04;98584.91;5125981;28;20062;-72
2023/08/04 02:25:04;;;;;;;4.00;1.85;;;;;;;18.12;70.21;98608.31;5125800;28;20097;-72
2023/08/04 02:27:31;;;;;;;2.85;1.80;;;;;;;18.11;70.24;98609.31;5126428;28;20032;-71
2023/08/04 02:29:59;;;;;;;3.20;1.77;;;;;;;18.17;70.24;98616.75;5126197;28;20108;-72
2023/08/04 02:32:26;;;;;;;4.40;1.70;;;;;;;18.18;69.29;98620.28;5126215;28;20118;-71
2023/08/04 02:34:53;;;;;;;3.35;2.10;;;;;;;18.02;69.59;98596.81;5126015;28;20052;-72
2023/08/04 02:37:19;;;;;;;4.05;2.65;;;;;;;18.17;69.75;98634.69;5126108;28;20089;-71
2023/08/04 02:39:46;;;;;;;2.88;1.80;;;;;;;17.19;70.37;98475.34;5125930;28;20040;-71
2023/08/04 02:42:14;;;;;;;3.78;2.10;;;;;;;18.08;70.58;98628.38;5126113;28;20062;-71
2023/08/04 02:44:41;;;;;;;3.58;2.25;;;;;;;18.15;69.73;98618.75;5124900;28;20304;-71
2023/08/04 02:47:09;;;;;;;3.95;2.10;;;;;;;18.10;70.19;98622.88;5125764;28;20040;-71
2023/08/04 02:49:36;;;;;;;3.20;1.73;;;;;;;18.08;70.30;98641.78;5126133;28;20043;-71
2023/08/04 02:52:05;;;;;;;3.72;1.83;;;;;;;18.09;70.11;98643.50;5124926;28;20044;-71
2023/08/04 02:54:31;;;;;;;3.25;1.70;;;;;;;18.07;70.64;98648.16;5126429;28;20187;-71
2023/08/04 02:56:58;;;;;;;2.70;1.63;;;;;;;17.54;70.69;98570.22;5129937;28;20031;-71
2023/08/04 02:59:25;;;;;;;2.58;1.80;;;;;;;17.95;71.52;98646.66;5129183;28;20051;-71
2023/08/04 03:01:51;;;;;;;3.65;1.90;;;;;;;18.01;71.23;98642.53;5128610;28;20234;-71
2023/08/04 03:04:21;;;;;;;4.28;1.65;;;;;;;17.94;72.27;98648.50;5130104;28;20329;-71
2023/08/04 03:06:48;;;;;;;3.05;1.92;;;;;;;17.75;72.37;98618.25;5129113;28;20039;-72
2023/08/04 03:09:14;;;;;;;3.70;2.15;;;;;;;17.93;71.75;98645.97;5128486;28;20050;-72
2023/08/04 03:11:43;;;;;;;3.15;2.00;;;;;;;17.83;71.23;98613.00;5129342;28;20176;-71
2023/08/04 03:14:10;;;;;;;2.78;1.52;;;;;;;17.96;71.97;98643.00;5112108;28;20043;-71
2023/08/04 03:16:37;;;;;;;4.68;2.22;;;;;;;17.91;72.92;98653.31;5129524;28;20055;-71
2023/08/04 03:19:03;;;;;;;3.63;1.90;;;;;;;17.78;73.13;98663.53;5129727;28;20043;-71
2023/08/04 03:21:31;;;;;;;3.08;1.90;;;;;;;17.88;72.50;98665.16;5129389;28;20063;-71
2023/08/04 03:23:58;;;;;;;3.83;2.10;;;;;;;17.93;72.26;98659.38;5128098;28;20051;-72
2023/08/04 03:26:25;;;;;;;3.60;1.83;;;;;;;17.92;71.92;98653.16;5128978;28;20043;-70
2023/08/04 03:28:51;;;;;;;3.22;1.90;;;;;;;17.89;72.05;98645.41;5129040;28;20043;-70
2023/08/04 03:31:18;;;;;;;4.57;1.85;;;;;;;17.89;72.11;98642.75;5129473;28;20100;-71
2023/08/04 03:33:45;;;;;;;4.13;2.00;;;;;;;17.83;72.10;98637.13;5129115;28;20105;-71
2023/08/04 03:36:11;;;;;;;3.80;1.85;;;;;;;17.79;72.28;98641.09;5129427;28;20043;-71
2023/08/04 03:38:40;;;;;;;4.80;2.05;;;;;;;17.69;72.60;98635.78;5128626;28;20180;-71
2023/08/04 03:41:06;;;;;;;3.85;2.20;;;;;;;17.76;72.85;98628.81;5129011;28;20044;-71
2023/08/04 03:43:33;;;;;;;5.30;2.10;;;;;;;17.63;72.73;98612.25;5127870;28;20089;-71
2023/08/04 03:46:00;;;;;;;4.03;2.20;;;;;;;17.71;72.96;98640.97;5129129;28;20035;-71
2023/08/04 03:48:26;;;;;;;3.17;2.38;;;;;;;17.67;73.39;98640.44;5128923;28;20157;-71
2023/08/04 03:50:53;;;;;;;3.53;1.90;;;;;;;17.69;73.13;98642.97;5128929;28;20055;-71
2023/08/04 03:53:20;;;;;;;3.47;2.08;;;;;;;17.77;72.93;98633.19;5127676;28;20039;-71
2023/08/04 03:55:48;;;;;;;3.10;2.10;;;;;;;17.75;72.48;98628.97;5128201;27;20047;-71
2023/08/04 03:58:15;;;;;;;2.83;1.90;;;;;;;17.77;72.57;98625.16;5128521;28;20047;-71
2023/08/04 04:00:41;;;;;;;5.32;2.63;;;;;;;17.75;72.88;98634.34;5128362;28;20093;-71
2023/08/04 04:03:08;;;;;;;3.92;2.20;;;;;;;17.71;73.22;98633.78;5128343;28;20039;-71
2023/08/04 04:05:35;;;;;;;3.20;1.75;;;;;;;17.65;73.60;98620.13;5127812;28;20119;-71
2023/08/04 04:08:02;;;;;;;3.58;2.25;;;;;;;17.60;73.49;98612.50;5127297;28;20036;-71
2023/08/04 04:10:28;;;;;;;4.35;2.10;;;;;;;17.61;74.13;98609.72;5128405;28;20049;-71
2023/08/04 04:12:56;;;;;;;3.72;2.13;;;;;;;17.62;74.69;98602.50;5128106;28;20093;-71
2023/08/04 04:15:23;;;;;;;5.85;2.83;;;;;;;17.68;74.22;98609.97;5128955;28;20210;-71
2023/08/04 04:17:50;;;;;;;4.28;2.25;;;;;;;17.37;73.25;98561.13;5127764;28;20295;-70
2023/08/04 04:20:19;;;;;;;5.00;2.22;;;;;;;17.52;73.40;98583.75;5128532;28;20053;-70
2023/08/04 04:22:46;;;;;;;3.35;1.92;;;;;;;17.75;72.90;98618.25;5128172;28;20111;-71
2023/08/04 04:25:13;;;;;;;3.65;2.15;;;;;;;17.50;73.59;98592.94;5127489;28;20299;-70
2023/08/04 04:27:40;;;;;;;3.70;2.10;;;;;;;17.66;73.37;98630.69;5127817;28;20064;-70
2023/08/04 04:30:09;;;;;;;3.65;2.50;;;;;;;17.46;75.46;98619.19;5126801;28;20268;-71
2023/08/04 04:32:36;;;;;;;4.10;2.50;;;;;;;17.46;74.80;98621.00;5127547;28;20039;-71
2023/08/04 04:35:02;;;;;;;3.60;2.22;;;;;;;17.57;73.74;98624.34;5127846;28;20317;-71
2023/08/04 04:37:29;;;;;;;4.53;2.50;;;;;;;17.58;74.35;98619.84;5127758;28;20035;-71
2023/08/04 04:39:56;;;;;;;5.03;2.28;;;;;;;17.42;74.38;98591.00;5127761;28;20371;-71
2023/08/04 04:42:23;;;;;;;4.10;2.33;;;;;;;17.63;73.97;98622.97;5127633;28;20059;-71
2023/08/04 04:44:49;;;;;;;4.20;2.92;;;;;;;17.44;73.93;98589.00;5127653;28;20044;-70
2023/08/04 04:47:17;;;;;;;4.00;2.38;;;;;;;17.54;74.61;98618.44;5127886;28;20039;-71
2023/08/04 04:49:44;;;;;;;3.95;2.85;;;;;;;17.51;74.96;98626.78;5126695;28;20315;-70
2023/08/04 04:52:30;;;;;;;3.65;2.38;;;;;;;17.61;74.04;98624.94;5127209;28;20054;-71
2023/08/04 04:54:57;;;;;;;3.40;1.98;;;;;;;17.37;75.67;98614.69;5126197;28;20055;-70
2023/08/04 04:57:24;;;;;;;3.53;2.63;;;;;;;17.48;75.12;98624.38;5126567;28;20061;-70
2023/08/04 04:59:50;;;;;;;6.78;3.50;;;;;;;17.43;75.30;98635.53;5127437;28;20043;-70
2023/08/04 05:02:19;;;;;;;6.22;2.63;;;;;;;17.50;74.93;98630.44;5127331;28;20047;-71
2023/08/04 05:04:46;;;;;;;3.45;2.40;;;;;;;17.48;75.21;98640.47;5127399;28;20051;-71
2023/08/04 05:07:12;;;;;;;6.20;3.25;;;;;;;17.43;75.15;98632.03;5127273;28;20096;-70
2023/08/04 05:09:39;;;;;;;5.03;2.67;;;;;;;17.55;75.01;98641.56;5126926;28;20214;-71
2023/08/04 05:12:08;;;;;;;6.85;3.17;;;;;;;16.95;75.52;98585.59;5126062;28;20051;-70
2023/08/04 05:14:35;;;;;;;4.93;3.05;;;;;;;17.54;75.54;98645.25;5126524;28;20229;-71
2023/08/04 05:17:01;;;;;;;4.38;2.38;;;;;;;17.45;76.27;98640.75;5125958;28;20237;-71
2023/08/04 05:19:29;;;;;;;3.40;2.22;;;;;;;17.52;75.73;98642.69;5126776;28;20318;-71
2023/08/04 05:21:56;;;;;;;4.35;2.53;;;;;;;17.56;75.01;98641.41;5127276;28;20044;-70
2023/08/04 05:24:23;;;;;;;4.88;3.08;;;;;;;17.50;76.23;98633.97;5126556;28;20303;-71
2023/08/04 05:26:50;;;;;;;3.80;2.30;;;;;;;17.54;76.26;98646.09;5126898;28;20052;-69
2023/08/04 05:29:16;;;;;;;3.88;2.28;;;;;;;17.56;75.13;98641.41;5126675;28;20057;-70
2023/08/04 05:31:43;;;;;;;5.57;2.65;;;;;;;17.59;75.31;98641.13;5125806;28;20043;-70
2023/08/04 05:34:10;;;;;;;4.55;2.35;;;;;;;17.65;75.78;98634.38;5126837;28;20066;-70
2023/08/04 05:36:38;;;;;;;3.40;2.45;;;;;;;17.58;75.42;98633.25;5127063;28;20192;-70
2023/08/04 05:39:04;;;;;;;4.28;2.35;;;;;;;17.56;75.38;98643.25;5126782;28;20044;-70
2023/08/04 05:41:31;;;;;;;4.88;2.42;;;;;;;17.57;74.99;98645.78;5125526;28;20063;-70
2023/08/04 05:43:58;;;;;;;3.72;2.20;;;;;;;17.58;75.24;98646.63;5126373;28;20039;-70
2023/08/04 05:46:24;;;;;;;3.97;2.70;;;;;;;17.54;75.04;98638.03;5125482;28;20341;-70
2023/08/04 05:48:51;;;;;;;4.97;2.40;;;;;;;17.56;74.51;98640.56;5126896;28;20065;-70
2023/08/04 05:51:18;;;;;;;5.47;2.63;;;;;;;17.44;74.52;98609.59;5126241;28;20146;-70
2023/08/04 05:53:46;;;;;;;3.97;2.45;;;;;;;17.10;74.63;98561.88;5126228;28;20222;-69
2023/08/04 05:56:13;;;;;;;3.67;2.10;;;;;;;17.51;75.06;98641.00;5126110;28;20055;-70
2023/08/04 05:58:39;;;;;;;3.92;2.53;;;;;;;17.57;74.61;98652.97;5126484;28;20108;-70
2023/08/04 06:01:06;;;;;;;4.10;3.00;;;;;;;17.59;74.78;98662.56;5126150;28;20043;-70
2023/08/04 06:03:33;;;;;;;5.07;2.75;;;;;;;17.51;74.42;98669.63;5126477;28;20039;-71
2023/08/04 06:06:00;;;;;;;4.63;3.20;;;;;;;16.90;75.43;98582.50;5126652;28;20048;-70
2023/08/04 06:08:27;;;;;;;4.78;3.25;;;;;;;17.49;75.06;98674.28;5125070;28;20077;-71
2023/08/04 06:10:56;;;;;;;3.63;2.38;;;;;;;17.45;75.32;98684.47;5126323;28;20092;-71
2023/08/04 06:13:23;;;;;;;4.22;2.65;;;;;;;17.47;75.31;98670.91;5126560;28;20203;-70
2023/08/04 06:15:50;;;;;;;5.68;2.95;;;;;;;17.45;75.31;98673.75;5126079;28;20341;-70
2023/08/04 06:18:17;;;;;;;5.10;2.85;;;;;;;17.43;76.00;98681.06;5126525;28;20101;-70
2023/08/04 06:20:44;;;;;;;5.72;3.13;;;;;;;17.52;75.47;98680.22;5125103;28;20043;-70
2023/08/04 06:23:11;;;;;;;6.25;3.00;;;;;;;17.49;75.34;98682.34;5126152;28;20043;-70
2023/08/04 06:25:38;;;;;;;4.57;2.63;;;;;;;17.20;75.30;98643.06;5125254;28;20074;-70
2023/08/04 06:28:06;;;;;;;5.72;2.83;;;;;;;17.31;76.21;98677.72;5126290;28;20043;-70
2023/08/04 06:30:33;;;;;;;5.60;2.45;;;;;;;17.43;75.47;98686.44;5130575;28;20039;-71
2023/08/04 06:33:00;;;;;;;3.78;2.70;;;;;;;17.45;75.69;98688.97;5128957;28;20039;-71
2023/08/04 06:35:26;;;;;;;3.85;2.65;;;;;;;17.47;75.20;98698.56;5129906;28;20106;-71
2023/08/04 06:37:53;;;;;;;5.13;2.72;;;;;;;17.47;75.65;98700.38;5129065;28;20035;-71
2023/08/04 06:40:20;;;;;;;5.35;3.00;;;;;;;17.49;75.56;98701.94;5130381;27;20047;-71
2023/08/04 06:42:47;;;;;;;3.42;2.50;;;;;;;17.46;74.76;98696.88;5129846;28;20055;-71
2023/08/04 06:45:15;;;;;;;4.95;2.45;;;;;;;17.47;74.76;98697.69;5130347;28;20051;-71
2023/08/04 06:47:42;;;;;;;4.13;2.38;;;;;;;17.46;74.11;98712.94;5129681;28;20270;-71
2023/08/04 06:50:09;;;;;;;6.93;3.42;;;;;;;17.48;74.30;98718.16;5130065;28;20055;-70
2023/08/04 06:52:36;;;;;;;4.05;2.50;;;;;;;17.50;73.86;98724.22;5129621;28;20039;-70
2023/08/04 06:55:03;;;;;;;3.42;2.25;;;;;;;17.52;73.59;98720.41;5129520;28;20253;-71
2023/08/04 06:57:30;;;;;;;3.63;2.13;;;;;;;17.66;73.58;98715.59;5129455;28;20039;-71
2023/08/04 06:59:56;;;;;;;4.28;2.13;;;;;;;17.69;73.34;98708.13;5129776;28;20043;-71
2023/08/04 07:02:24;;;;;;;4.75;2.22;;;;;;;17.55;72.07;98679.91;5128598;28;20042;-71
2023/08/04 07:04:51;;;;;;;3.33;1.92;;;;;;;17.72;71.98;98712.34;5129427;28;20043;-71
2023/08/04 07:07:18;;;;;;;3.90;2.42;;;;;;;17.77;71.31;98697.53;5129554;28;20054;-71
2023/08/04 07:09:45;;;;;;;3.47;2.20;;;;;;;17.88;71.35;98707.22;5128954;28;20046;-70
2023/08/04 07:12:11;;;;;;;3.80;2.22;;;;;;;17.93;71.22;98708.47;5129751;28;20207;-70
2023/08/04 07:14:38;;;;;;;3.20;2.20;;;;;;;18.07;70.80;98707.13;5128280;28;20208;-71
2023/08/04 07:17:05;;;;;;;4.22;1.88;;;;;;;18.19;70.22;98695.22;5129417;28;20039;-70
2023/08/04 07:19:33;;;;;;;3.10;1.90;;;;;;;18.36;69.38;98690.06;5129102;28;20051;-71
2023/08/04 07:22:00;;;;;;;4.47;2.55;;;;;;;18.21;68.56;98663.75;5128911;28;20047;-71
2023/08/04 07:24:27;;;;;;;4.20;1.80;;;;;;;18.42;67.54;98695.66;5128045;28;20118;-71
2023/08/04 07:26:53;;;;;;;4.10;2.00;;;;;;;18.35;66.88;98699.09;5129440;28;20061;-71
2023/08/04 07:29:21;;;;;;;2.97;1.90;;;;;;;18.35;67.07;98704.47;5128735;28;20108;-71
2023/08/04 07:31:47;;;;;;;4.90;2.40;;;;;;;18.41;66.84;98712.75;5129324;28;20089;-71
2023/08/04 07:34:14;;;;;;;3.25;2.10;;;;;;;18.28;66.89;98691.66;5128610;28;20085;-72
2023/08/04 07:36:42;;;;;;;3.22;2.25;;;;;;;18.51;66.53;98720.75;5129088;28;20049;-71
2023/08/04 07:39:09;;;;;;;3.15;2.03;;;;;;;18.27;67.08;98676.56;5129068;28;20302;-71
2023/08/04 07:41:35;;;;;;;2.95;1.90;;;;;;;18.56;66.73;98708.63;5128058;28;20051;-71
2023/08/04 07:44:02;;;;;;;7.25;2.28;;;;;;;18.36;66.84;98673.97;5128051;28;20039;-71
2023/08/04 07:46:30;;;;;;;3.00;1.92;;;;;;;18.22;66.49;98649.34;5128650;28;20055;-71
2023/08/04 07:48:58;;;;;;;4.53;2.28;;;;;;;18.64;66.24;98715.91;5127612;28;20043;-71
2023/08/04 07:51:25;;;;;;;3.40;2.00;;;;;;;18.63;65.55;98714.22;5127397;28;20047;-70
2023/08/04 07:53:53;;;;;;;3.20;2.03;;;;;;;18.62;66.23;98714.38;5128310;27;20043;-71
2023/08/04 07:56:20;;;;;;;3.03;1.77;;;;;;;18.67;66.32;98715.59;5128161;28;20044;-71
2023/08/04 07:58:48;;;;;;;3.20;1.95;;;;;;;18.76;66.18;98716.53;5127438;28;20039;-72
2023/08/04 08:01:17;;;;;;;4.10;2.10;;;;;;;18.78;65.59;98718.06;5128248;28;20050;-71
2023/08/04 08:03:44;;;;;;;3.17;1.85;;;;;;;18.89;65.77;98700.91;5127649;28;20035;-72
2023/08/04 08:06:11;;;;;;;2.65;1.85;;;;;;;18.92;65.90;98709.50;5128473;28;20230;-71
2023/08/04 08:08:38;;;;;;;3.70;2.00;;;;;;;18.83;65.34;98682.72;5128643;28;20036;-71
2023/08/04 08:11:10;;;;;;;4.10;2.85;;;;;;;19.06;65.52;98712.63;5127193;28;20043;-71
2023/08/04 08:13:38;;;;;;;3.63;2.38;;;;;;;19.09;65.61;98725.75;5128591;28;20043;-71
2023/08/04 08:16:09;;;;;;;3.92;2.03;;;;;;;18.95;63.19;98728.97;5128097;28;20369;-72
2023/08/04 08:18:36;;;;;;;3.90;1.90;;;;;;;19.03;64.56;98729.06;5128214;28;20226;-72
2023/08/04 08:21:05;;;;;;;3.47;1.90;;;;;;;18.94;64.94;98697.75;5127115;28;20050;-72
2023/08/04 08:23:32;;;;;;;2.90;1.90;;;;;;;19.09;64.03;98717.72;5128158;27;20114;-71
2023/08/04 08:26:00;;;;;;;3.05;1.98;;;;;;;19.17;63.90;98717.78;5128076;28;20045;-71
2023/08/04 08:28:28;;;;;;;3.95;2.13;;;;;;;18.96;64.67;98671.59;5127785;28;20039;-72
2023/08/04 08:30:55;;;;;;;4.10;2.40;;;;;;;19.08;65.63;98703.44;5127601;28;20051;-71
2023/08/04 08:33:22;;;;;;;3.55;2.60;;;;;;;19.12;65.88;98707.50;5128015;28;20172;-71
2023/08/04 08:35:49;;;;;;;5.00;2.47;;;;;;;19.19;66.02;98710.41;5126822;28;20039;-71
2023/08/04 08:38:16;;;;;;;3.00;1.80;;;;;;;19.19;66.07;98703.19;5127106;28;20040;-70
2023/08/04 08:40:43;;;;;;;3.97;2.53;;;;;;;19.17;65.91;98702.50;5126463;28;20210;-71
2023/08/04 08:43:10;;;;;;;4.20;2.25;;;;;;;19.17;66.30;98691.75;5127183;28;20039;-71
2023/08/04 08:45:41;;;;;;;3.00;2.28;;;;;;;19.17;66.64;98707.03;5127566;28;20052;-71
2023/08/04 08:48:07;;;;;;;4.30;2.63;;;;;;;18.94;67.16;98679.81;5126223;28;20039;-70
2023/08/04 08:50:35;;;;;;;5.55;3.00;;;;;;;19.07;66.80;98711.63;5127370;28;20092;-72
2023/08/04 08:53:09;;;;;;;5.38;2.40;;;;;;;19.07;67.07;98720.53;5127703;28;20202;-70
2023/08/04 08:55:37;;;;;;;4.72;2.50;;;;;;;19.06;67.26;98718.84;5127031;28;20051;-71
2023/08/04 08:58:05;;;;;;;3.60;1.90;;;;;;;19.05;67.54;98709.09;5126855;28;20039;-71
2023/08/04 09:00:31;;;;;;;4.93;2.45;;;;;;;19.05;67.75;98706.44;5127379;28;20104;-71
2023/08/04 09:03:00;;;;;;;3.65;2.42;;;;;;;19.07;68.26;98708.97;5127278;28;20100;-71
2023/08/04 09:05:26;;;;;;;3.17;2.20;;;;;;;19.06;68.18;98715.31;5126103;28;20039;-72
2023/08/04 09:07:53;;;;;;;3.42;2.30;;;;;;;19.06;68.12;98710.81;5127412;28;20043;-72
2023/08/04 09:10:21;;;;;;;4.18;2.60;;;;;;;19.10;68.17;98711.34;5126207;28;20035;-71
2023/08/04 09:12:49;;;;;;;3.67;2.00;;;;;;;18.94;68.16;98698.59;5126872;28;20114;-72
2023/08/04 09:15:16;;;;;;;3.30;2.20;;;;;;;19.04;68.06;98717.31;5125806;28;20063;-72
2023/08/04 09:17:44;;;;;;;3.90;2.58;;;;;;;18.78;68.19;98679.66;5126109;28;20031;-71
2023/08/04 09:20:30;;;;;;;4.22;2.33;;;;;;;19.03;68.42;98724.53;5126972;28;20047;-71
2023/08/04 09:22:57;;;;;;;4.15;2.53;;;;;;;18.99;68.54;98723.16;5127330;28;20063;-70
2023/08/04 09:25:24;;;;;;;5.93;2.42;;;;;;;18.97;68.85;98722.47;5126982;28;20058;-71
2023/08/04 09:27:50;;;;;;;4.38;2.47;;;;;;;18.98;68.97;98720.63;5126847;28;20040;-71
2023/08/04 09:30:19;;;;;;;7.78;3.28;;;;;;;18.47;68.72;98629.00;5126472;28;20048;-71
2023/08/04 09:32:47;;;;;;;5.35;2.60;;;;;;;18.21;68.67;98574.41;5125609;28;20370;-71
2023/08/04 09:35:15;;;;;;;4.30;2.28;;;;;;;19.04;68.98;98720.00;5125620;28;20118;-71
2023/08/04 09:37:43;;;;;;;3.75;2.58;;;;;;;19.00;69.07;98702.50;5127041;28;20036;-71
2023/08/04 09:40:15;;;;;;;4.68;2.50;;;;;;;19.11;68.45;98713.03;5127561;28;20055;-71
2023/08/04 09:42:42;;;;;;;5.47;2.47;;;;;;;19.11;69.25;98713.88;5126720;28;20293;-71
2023/08/04 09:45:12;;;;;;;4.82;2.20;;;;;;;18.33;68.91;98575.03;5126689;28;20078;-71
2023/08/04 09:47:39;;;;;;;3.30;2.22;;;;;;;19.23;68.52;98722.53;5126741;28;20047;-72
2023/08/04 09:50:10;;;;;;;4.70;2.70;;;;;;;19.27;68.31;98707.78;5126856;28;20175;-71
2023/08/04 09:52:38;;;;;;;3.47;2.05;;;;;;;19.36;68.04;98708.69;5126521;28;20043;-71
2023/08/04 09:55:11;;;;;;;4.13;2.35;;;;;;;19.42;67.94;98710.78;5126394;28;20059;-72
2023/08/04 09:57:38;;;;;;;4.03;2.30;;;;;;;19.33;68.64;98709.84;5126436;28;20283;-71
2023/08/04 10:00:07;;;;;;;4.85;2.47;;;;;;;19.35;68.13;98704.31;5125482;28;20039;-71
2023/08/04 10:02:34;;;;;;;4.25;2.60;;;;;;;18.84;68.21;98626.19;5126191;28;20051;-72
2023/08/04 10:05:06;;;;;;;3.88;2.28;;;;;;;19.27;67.92;98680.94;5126240;28;20031;-72
2023/08/04 10:07:32;;;;;;;3.90;2.45;;;;;;;19.40;68.07;98699.38;5125123;28;20039;-72
2023/08/04 10:10:06;;;;;;;5.28;2.83;;;;;;;19.26;68.24;98681.94;5125861;28;20044;-73
2023/08/04 10:12:34;;;;;;;3.77;2.47;;;;;;;19.33;68.24;98680.31;5125692;28;20055;-71
2023/08/04 10:15:00;;;;;;;6.65;2.95;;;;;;;19.55;68.71;98713.91;5126253;28;20415;-71
2023/08/04 10:17:28;;;;;;;5.13;2.58;;;;;;;19.52;68.58;98719.59;5125392;28;20039;-72
2023/08/04 10:20:03;;;;;;;6.05;2.65;;;;;;;19.34;67.54;98695.41;5126239;28;20039;-71
2023/08/04 10:22:32;;;;;;;4.22;2.35;;;;;;;19.46;67.97;98730.97;5125737;28;20108;-71
2023/08/04 10:24:58;;;;;;;3.53;2.30;;;;;;;19.47;67.31;98725.44;5126211;28;20043;-71
2023/08/04 10:27:28;;;;;;;4.53;2.05;;;;;;;18.92;66.50;98650.44;5125907;28;20085;-72
2023/08/04 10:30:10;;;;;;;3.35;2.30;;;;;;;19.49;66.84;98734.19;5126126;28;20051;-71
2023/08/04 10:32:38;;;;;;;5.32;2.65;;;;;;;19.52;66.48;98744.63;5125901;28;20073;-72
2023/08/04 10:35:06;;;;;;;4.07;2.05;;;;;;;19.51;66.54;98742.94;5124945;28;20181;-71
2023/08/04 10:37:45;;;;;;;3.85;2.03;;;;;;;19.50;66.06;98740.41;5126353;28;20032;-71
2023/08/04 10:40:12;;;;;;;3.83;2.30;;;;;;;19.39;65.83;98725.38;5126236;28;20055;-71
2023/08/04 10:42:59;;;;;;;5.45;2.03;;;;;;;19.61;65.91;98742.84;5125686;28;20362;-72
2023/08/04 10:45:50;;;;;;;3.63;2.38;;;;;;;19.54;66.21;98713.06;5125935;28;20089;-72
2023/08/04 10:48:19;;;;;;;3.42;2.28;;;;;;;19.70;65.78;98739.22;5125740;28;20035;-71
2023/08/04 10:50:45;;;;;;;5.88;2.65;;;;;;;19.67;64.71;98738.69;5125927;28;20062;-72
2023/08/04 10:53:13;;;;;;;6.18;2.10;;;;;;;19.67;65.49;98725.25;5125943;28;20111;-72
2023/08/04 10:55:51;;;;;;;4.07;2.13;;;;;;;19.66;65.05;98723.56;5125338;28;20055;-71
2023/08/04 10:58:19;;;;;;;3.13;1.58;;;;;;;19.66;64.04;98705.59;5124691;28;20070;-71
2023/08/04 11:00:46;;;;;;;6.10;3.47;;;;;;;19.70;64.25;98708.81;5125492;28;20085;-71
2023/08/04 11:03:19;;;;;;;2.85;1.88;;;;;;;19.65;63.98;98695.84;5125458;28;20035;-71
2023/08/04 11:05:46;;;;;;;3.92;1.80;;;;;;;19.65;64.32;98693.16;5124405;28;20059;-71
2023/08/04 11:08:14;;;;;;;3.03;1.70;;;;;;;19.55;64.71;98676.28;5125252;28;20319;-71
2023/08/04 11:10:46;;;;;;;3.65;1.70;;;;;;;19.66;64.02;98700.22;5124625;28;20055;-71
2023/08/04 11:13:13;;;;;;;4.82;1.80;;;;;;;19.61;63.74;98707.91;5125125;28;20071;-70
2023/08/04 11:15:46;;;;;;;2.90;1.60;;;;;;;19.62;64.00;98704.22;5109147;28;20039;-71
2023/08/04 11:18:13;;;;;;;6.80;2.50;;;;;;;19.60;66.61;98700.84;5128979;28;20050;-70
2023/08/04 11:20:41;;;;;;;5.78;2.97;;;;;;;19.61;67.43;98702.53;5128262;28;20065;-71
2023/08/04 11:23:09;;;;;;;4.63;2.20;;;;;;;19.32;67.36;98642.84;5128194;28;20040;-71
2023/08/04 11:25:37;;;;;;;7.43;2.58;;;;;;;19.62;67.65;98696.16;5128066;28;20058;-71
2023/08/04 11:28:05;;;;;;;3.85;2.50;;;;;;;19.69;67.78;98682.94;5127900;28;20089;-71
2023/08/04 11:30:33;;;;;;;5.03;2.92;;;;;;;19.69;68.24;98675.72;5127925;28;20031;-71
2023/08/04 11:33:01;;;;;;;5.05;3.10;;;;;;;19.66;68.16;98667.97;5128039;28;20266;-71
2023/08/04 11:35:29;;;;;;;6.22;2.30;;;;;;;19.71;67.39;98668.34;5129456;27;20051;-72
2023/08/04 11:37:56;;;;;;;3.25;2.10;;;;;;;19.60;66.99;98649.78;5129137;28;20044;-72